Time;durP1;ratioP1;P1;durP2;ratioP2;P2;SDS_P1;SDS_P2;PMS_P1;PMS_P2;Temp;Humidity;BMP_temperature;BMP_pressure;BME280_temperature;BME280_humidity;BME280_pressure;Samples;Min_cycle;Max_cycle;Signal;HPM_P1;HPM_P2
2023/10/09 00:02:14;;;;;;;4.68;3.30;;;22.80;53.90;;;;;;5024529;28;20127;-58
2023/10/09 00:04:45;;;;;;;4.07;2.95;;;22.90;54.00;;;;;;5037195;28;20037;-58
2023/10/09 00:07:11;;;;;;;4.97;3.20;;;22.80;54.00;;;;;;5040936;28;20054;-54
2023/10/09 00:09:56;;;;;;;6.30;3.58;;;22.90;54.10;;;;;;5045639;28;20123;-54
2023/10/09 00:12:29;;;;;;;;;;;22.80;54.00;;;;;;5040132;28;20399;-56
2023/10/09 00:15:08;;;;;;;5.72;2.95;;;22.80;54.00;;;;;;5042484;28;19948;-56
2023/10/09 00:17:34;;;;;;;4.50;3.38;;;22.80;54.10;;;;;;5040847;28;20417;-57
2023/10/09 00:20:07;;;;;;;5.15;3.15;;;22.80;54.10;;;;;;5039332;28;20041;-55
2023/10/09 00:22:38;;;;;;;4.25;3.17;;;22.80;54.20;;;;;;5043118;28;20033;-56
2023/10/09 00:25:12;;;;;;;5.30;3.03;;;22.80;54.20;;;;;;5034750;28;20029;-53
2023/10/09 00:27:42;;;;;;;5.85;3.72;;;22.80;54.20;;;;;;5041339;28;20103;-54
2023/10/09 00:30:18;;;;;;;4.80;3.72;;;22.80;54.30;;;;;;5037302;28;20026;-54
2023/10/09 00:32:52;;;;;;;4.88;3.40;;;22.80;54.30;;;;;;5039989;28;20125;-56
2023/10/09 00:35:37;;;;;;;5.13;3.95;;;22.80;54.30;;;;;;5038276;28;20140;-57
2023/10/09 00:38:33;;;;;;;4.40;3.47;;;22.80;54.30;;;;;;5041103;28;20390;-58
2023/10/09 00:41:10;;;;;;;4.88;3.97;;;22.80;54.30;;;;;;5018924;28;20328;-58
2023/10/09 00:43:37;;;;;;;5.95;3.67;;;22.80;54.40;;;;;;5040631;28;20098;-55
2023/10/09 00:46:16;;;;;;;5.22;3.75;;;22.80;54.40;;;;;;5039440;28;20037;-54
2023/10/09 00:48:42;;;;;;;5.32;3.83;;;22.80;54.40;;;;;;5037260;28;20072;-58
2023/10/09 00:51:17;;;;;;;5.88;3.53;;;22.70;54.40;;;;;;5040188;28;20044;-56
2023/10/09 00:53:58;;;;;;;5.03;3.40;;;22.80;54.40;;;;;;5019196;28;20040;-55
2023/10/09 00:59:14;;;;;;;5.38;4.05;;;22.80;54.50;;;;;;5038653;28;20113;-56
2023/10/09 01:01:55;;;;;;;6.32;3.63;;;22.80;54.50;;;;;;5022094;28;20337;-54
2023/10/09 01:04:25;;;;;;;5.65;3.60;;;22.80;54.50;;;;;;5019908;28;20219;-54
2023/10/09 01:07:08;;;;;;;6.07;4.20;;;22.80;54.50;;;;;;5038037;28;20052;-55
2023/10/09 01:09:42;;;;;;;5.90;3.67;;;22.80;54.50;;;;;;5041521;28;20032;-55
2023/10/09 01:12:16;;;;;;;;;;;22.80;54.60;;;;;;5040611;28;20158;-58
2023/10/09 01:14:43;;;;;;;6.45;3.85;;;22.80;54.60;;;;;;5016546;28;19919;-55
2023/10/09 01:17:10;;;;;;;5.85;3.85;;;22.80;54.60;;;;;;5038195;28;20455;-58
2023/10/09 01:19:38;;;;;;;7.45;4.57;;;22.70;54.60;;;;;;5039854;28;20104;-55
2023/10/09 01:22:12;;;;;;;6.70;4.68;;;22.70;54.60;;;;;;5038277;28;20036;-52
2023/10/09 01:24:39;;;;;;;6.03;4.20;;;22.70;54.60;;;;;;5019263;28;20094;-56
2023/10/09 01:27:12;;;;;;;5.85;4.05;;;22.70;54.70;;;;;;5036842;28;20055;-54
2023/10/09 01:29:41;;;;;;;5.75;4.13;;;22.70;54.70;;;;;;5038297;28;20032;-56
2023/10/09 01:32:16;;;;;;;7.05;4.20;;;22.70;54.70;;;;;;5019629;28;20029;-57
2023/10/09 01:34:44;;;;;;;6.80;4.28;;;22.70;54.80;;;;;;5037041;28;20060;-52
2023/10/09 01:37:18;;;;;;;5.28;4.10;;;22.70;54.80;;;;;;5019254;28;20410;-55
2023/10/09 01:39:54;;;;;;;7.00;4.55;;;22.70;54.80;;;;;;5022286;28;20025;-57
2023/10/09 01:42:45;;;;;;;5.68;4.55;;;22.70;54.80;;;;;;5035701;28;20432;-55
2023/10/09 01:45:15;;;;;;;6.78;4.13;;;22.70;54.80;;;;;;5039692;28;20040;-55
2023/10/09 01:47:46;;;;;;;5.72;3.92;;;22.70;54.90;;;;;;5014086;28;20355;-56
2023/10/09 01:50:20;;;;;;;5.65;4.10;;;22.70;54.90;;;;;;5018715;28;20036;-54
2023/10/09 01:52:46;;;;;;;;;;;22.70;54.90;;;;;;5016264;28;20132;-58
2023/10/09 01:55:35;;;;;;;6.95;4.50;;;22.70;54.90;;;;;;5041280;28;20050;-56
2023/10/09 02:00:54;;;;;;;5.95;3.67;;;22.70;55.00;;;;;;5021561;28;20162;-54
2023/10/09 02:03:25;;;;;;;5.30;3.88;;;22.70;55.00;;;;;;5035993;28;20037;-55
2023/10/09 02:06:03;;;;;;;5.55;3.92;;;22.70;55.00;;;;;;5020398;28;20036;-55
2023/10/09 02:08:30;;;;;;;7.32;4.38;;;22.70;55.00;;;;;;5041752;28;20033;-54
2023/10/09 02:10:56;;;;;;;5.45;3.97;;;22.70;55.10;;;;;;5036979;28;20026;-56
2023/10/09 02:13:34;;;;;;;5.75;4.07;;;22.70;55.10;;;;;;5017704;28;20116;-55
2023/10/09 02:16:14;;;;;;;5.63;3.97;;;22.70;55.10;;;;;;5036938;28;20030;-51
2023/10/09 02:18:52;;;;;;;5.28;4.18;;;22.70;55.10;;;;;;5020930;28;20085;-56
2023/10/09 02:21:33;;;;;;;6.45;4.13;;;22.70;55.20;;;;;;5039769;28;20021;-54
2023/10/09 02:24:03;;;;;;;6.55;4.32;;;22.70;55.20;;;;;;5023115;28;20073;-56
2023/10/09 02:29:15;;;;;;;6.82;4.30;;;22.70;55.20;;;;;;5024769;28;20024;-55
2023/10/09 02:31:51;;;;;;;6.05;4.53;;;22.70;55.20;;;;;;5020502;28;20021;-58
2023/10/09 02:34:27;;;;;;;6.68;4.60;;;22.70;55.20;;;;;;5042919;28;20053;-51
2023/10/09 02:37:05;;;;;;;5.72;4.25;;;22.70;55.30;;;;;;5025107;28;20476;-57
2023/10/09 02:39:43;;;;;;;5.07;4.10;;;22.70;55.30;;;;;;5042594;28;20479;-55
2023/10/09 02:44:46;;;;;;;5.88;4.20;;;22.70;55.40;;;;;;5039121;28;20037;-57
2023/10/09 02:47:20;;;;;;;5.65;4.35;;;22.70;55.40;;;;;;5041971;28;20032;-58
2023/10/09 02:49:50;;;;;;;6.38;4.30;;;22.70;55.40;;;;;;5045150;28;20481;-56
2023/10/09 02:52:25;;;;;;;6.60;4.55;;;22.60;55.30;;;;;;5039166;28;20112;-60
2023/10/09 02:55:08;;;;;;;5.75;3.70;;;22.70;55.40;;;;;;5024554;28;20029;-55
2023/10/09 02:57:37;;;;;;;5.32;4.30;;;22.70;55.40;;;;;;5043477;28;20056;-55
2023/10/09 03:00:09;;;;;;;6.40;4.40;;;22.60;55.40;;;;;;5043045;28;20082;-52
2023/10/09 03:02:39;;;;;;;5.53;4.22;;;22.70;55.50;;;;;;5042958;28;20417;-54
2023/10/09 03:05:11;;;;;;;5.55;4.35;;;22.60;55.40;;;;;;5022660;28;20094;-58
2023/10/09 03:07:39;;;;;;;5.55;3.70;;;22.60;55.50;;;;;;5026557;28;20017;-54
2023/10/09 03:10:09;;;;;;;5.07;3.97;;;22.60;55.50;;;;;;5006559;28;20390;-55
2023/10/09 03:12:35;;;;;;;6.18;4.43;;;22.60;55.50;;;;;;5040914;28;20083;-60
2023/10/09 03:15:05;;;;;;;6.05;4.20;;;22.70;55.60;;;;;;5040479;28;20079;-53
2023/10/09 03:17:34;;;;;;;5.25;3.97;;;22.60;55.50;;;;;;5046059;28;20106;-52
2023/10/09 03:20:09;;;;;;;5.22;4.20;;;22.70;55.60;;;;;;5043424;28;20077;-51
2023/10/09 03:22:35;;;;;;;5.32;3.92;;;22.70;55.60;;;;;;5019248;28;20033;-56
2023/10/09 03:25:01;;;;;;;5.50;3.80;;;22.60;55.60;;;;;;5018320;28;20122;-57
2023/10/09 03:27:27;;;;;;;5.00;3.70;;;22.60;55.60;;;;;;5022712;28;20067;-58
2023/10/09 03:29:53;;;;;;;6.60;4.22;;;22.60;55.60;;;;;;5010053;28;20052;-56
2023/10/09 03:32:19;;;;;;;6.05;4.45;;;22.70;55.70;;;;;;5042296;28;20440;-57
2023/10/09 03:34:45;;;;;;;5.90;4.40;;;22.60;55.70;;;;;;5041716;28;20059;-52
2023/10/09 03:37:22;;;;;;;5.97;4.07;;;22.60;55.70;;;;;;5019293;28;20137;-59
2023/10/09 03:39:54;;;;;;;5.10;4.00;;;22.60;55.80;;;;;;5019217;28;20494;-60
2023/10/09 03:42:22;;;;;;;6.03;3.67;;;22.60;55.80;;;;;;5039386;28;20025;-57
2023/10/09 03:44:52;;;;;;;4.85;3.67;;;22.60;55.80;;;;;;5040430;28;20402;-58
2023/10/09 03:47:22;;;;;;;6.18;4.40;;;22.60;55.80;;;;;;5041134;28;20096;-56
2023/10/09 03:49:53;;;;;;;4.65;3.45;;;22.60;55.90;;;;;;5042775;28;20260;-56
2023/10/09 03:52:19;;;;;;;5.97;4.10;;;22.60;55.90;;;;;;5043001;28;20082;-57
2023/10/09 03:54:49;;;;;;;5.53;3.90;;;22.60;55.90;;;;;;5038384;28;20047;-55
2023/10/09 03:57:19;;;;;;;4.95;3.50;;;22.60;55.90;;;;;;5039952;28;20048;-57
2023/10/09 03:59:48;;;;;;;5.13;3.95;;;22.60;56.00;;;;;;5037100;28;20460;-56
2023/10/09 04:02:15;;;;;;;4.78;3.47;;;22.60;56.00;;;;;;5040308;28;20025;-55
2023/10/09 04:04:46;;;;;;;5.55;3.90;;;22.60;56.00;;;;;;5039850;28;20029;-49
2023/10/09 04:07:16;;;;;;;4.90;3.47;;;22.60;56.00;;;;;;5020165;28;20025;-53
2023/10/09 04:09:44;;;;;;;5.15;3.50;;;22.60;56.10;;;;;;5043280;28;20662;-59
2023/10/09 04:14:57;;;;;;;4.95;3.42;;;22.60;56.10;;;;;;5042288;28;20033;-56
2023/10/09 04:25:26;;;;;;;4.75;3.78;;;22.60;56.80;;;;;;5025048;28;20033;-54
2023/10/09 04:28:08;;;;;;;5.68;3.63;;;22.60;56.20;;;;;;5042562;28;20025;-55
2023/10/09 04:30:46;;;;;;;4.15;3.08;;;22.60;56.30;;;;;;5040020;28;20512;-52
2023/10/09 04:33:28;;;;;;;5.47;3.60;;;22.60;56.30;;;;;;5019930;28;20140;-56
2023/10/09 04:36:21;;;;;;;5.55;3.53;;;22.60;56.30;;;;;;5039782;28;20058;-56
2023/10/09 04:41:51;;;;;;;5.72;3.67;;;22.60;56.40;;;;;;5039649;28;20480;-56
2023/10/09 04:44:22;;;;;;;5.47;3.60;;;22.60;56.40;;;;;;5037608;28;20156;-56
2023/10/09 04:57:37;;;;;;;5.25;3.38;;;22.60;56.60;;;;;;5041582;28;20036;-54
2023/10/09 05:00:22;;;;;;;5.50;3.78;;;22.60;56.60;;;;;;5039978;28;20385;-53
2023/10/09 05:02:54;;;;;;;4.30;3.10;;;22.60;56.60;;;;;;5036553;28;20234;-54
2023/10/09 05:08:20;;;;;;;4.03;2.88;;;22.60;56.70;;;;;;5019886;28;20040;-56
2023/10/09 05:16:18;;;;;;;3.90;2.97;;;22.60;56.80;;;;;;5036893;28;20045;-56
2023/10/09 05:19:05;;;;;;;5.25;3.47;;;22.60;56.80;;;;;;5038530;28;20078;-55
2023/10/09 05:34:22;;;;;;;4.30;2.90;;;22.60;57.00;;;;;;5037479;28;20049;-54
2023/10/09 05:36:49;;;;;;;4.57;3.13;;;22.60;57.60;;;;;;5002677;28;20124;-57
2023/10/09 05:42:09;;;;;;;4.97;3.63;;;22.60;57.00;;;;;;5001379;28;20045;-56
2023/10/09 05:47:31;;;;;;;5.05;3.22;;;22.60;57.10;;;;;;5036804;28;20029;-62
2023/10/09 06:08:24;;;;;;;4.30;3.22;;;22.60;57.30;;;;;;5039685;28;20048;-57
2023/10/09 06:11:05;;;;;;;;;;;22.60;57.30;;;;;;5036656;28;20449;-60
2023/10/09 06:13:37;;;;;;;5.30;3.15;;;22.60;57.40;;;;;;5041224;28;19957;-57
2023/10/09 06:16:29;;;;;;;4.68;3.13;;;22.60;57.50;;;;;;5039456;28;20033;-56
2023/10/09 06:19:07;;;;;;;7.10;3.63;;;22.50;57.40;;;;;;5035951;28;20037;-58
2023/10/09 06:24:22;;;;;;;5.53;3.40;;;22.60;57.60;;;;;;5039149;28;20416;-59
2023/10/09 06:29:35;;;;;;;4.72;3.55;;;22.60;57.60;;;;;;5038060;28;20095;-60
2023/10/09 06:32:34;;;;;;;6.10;4.00;;;22.60;57.60;;;;;;5039157;28;20025;-59
2023/10/09 06:35:21;;;;;;;4.93;3.10;;;22.60;57.60;;;;;;5041690;28;20056;-59
2023/10/09 06:41:45;;;;;;;5.07;3.00;;;22.60;57.70;;;;;;5041525;28;20025;-57
2023/10/09 06:43:37;;;;;;;;;;;22.60;57.70;;;;;;5025691;28;20053;-58
2023/10/09 06:48:56;;;;;;;4.45;2.97;;;22.60;57.70;;;;;;5038711;28;20368;-58
2023/10/09 06:59:24;;;;;;;5.32;3.35;;;22.60;57.90;;;;;;5039790;28;20029;-57
2023/10/09 07:07:07;;;;;;;5.18;3.35;;;22.60;58.00;;;;;;5048858;28;20040;-56
2023/10/09 07:09:42;;;;;;;5.78;3.65;;;22.60;58.00;;;;;;5049141;28;20132;-58
2023/10/09 07:12:20;;;;;;;5.20;3.22;;;22.60;58.10;;;;;;5048071;28;20411;-57
2023/10/09 07:20:13;;;;;;;;;;;22.60;58.20;;;;;;5026188;28;20037;-60
2023/10/09 07:22:52;;;;;;;5.65;3.28;;;22.60;58.20;;;;;;5039102;28;19917;-57
2023/10/09 07:25:32;;;;;;;4.85;3.38;;;22.60;58.20;;;;;;5045239;28;20095;-59
2023/10/09 07:27:59;;;;;;;6.38;3.80;;;22.60;58.30;;;;;;5041228;28;20033;-58
2023/10/09 07:32:54;;;;;;;5.60;3.33;;;22.60;58.30;;;;;;5042361;28;20030;-60
2023/10/09 07:38:08;;;;;;;4.90;3.38;;;22.60;58.40;;;;;;5045547;28;20064;-56
2023/10/09 07:40:56;;;;;;;4.55;3.05;;;22.60;58.40;;;;;;5042588;28;20025;-61
2023/10/09 07:43:38;;;;;;;5.15;3.58;;;22.60;59.00;;;;;;5042862;28;20025;-59
2023/10/09 07:48:55;;;;;;;6.30;3.67;;;22.60;58.40;;;;;;5041158;28;20106;-57
2023/10/09 07:51:31;;;;;;;5.75;3.53;;;22.60;58.50;;;;;;5039949;28;20431;-54
2023/10/09 07:54:08;;;;;;;6.00;3.65;;;22.60;58.50;;;;;;5042166;28;20025;-58
2023/10/09 07:56:41;;;;;;;5.95;3.88;;;22.70;58.60;;;;;;5042468;28;20036;-58
2023/10/09 07:59:11;;;;;;;4.78;2.78;;;22.70;58.60;;;;;;5039950;28;20365;-54
2023/10/09 08:01:52;;;;;;;5.78;3.25;;;22.60;59.20;;;;;;5035887;28;20037;-58
2023/10/09 08:04:47;;;;;;;5.55;3.38;;;22.70;58.70;;;;;;5025501;28;20056;-56
2023/10/09 08:07:34;;;;;;;4.75;3.50;;;22.70;58.70;;;;;;5053476;28;20336;-59
2023/10/09 08:15:20;;;;;;;6.63;3.25;;;22.70;58.80;;;;;;5042633;28;20055;-60
2023/10/09 08:17:59;;;;;;;4.80;3.13;;;22.70;58.80;;;;;;5040561;28;20182;-59
2023/10/09 08:20:36;;;;;;;7.03;3.80;;;22.70;59.40;;;;;;5039476;28;20029;-61
2023/10/09 08:23:04;;;;;;;5.28;3.25;;;22.70;58.80;;;;;;5046085;28;20116;-58
2023/10/09 08:25:56;;;;;;;5.82;3.50;;;22.70;58.80;;;;;;5041549;28;20057;-59
2023/10/09 08:29:15;;;;;;;4.88;3.33;;;22.70;58.90;;;;;;5047322;28;20107;-58
2023/10/09 08:31:19;;;;;;;5.25;3.30;;;22.70;58.90;;;;;;5034870;28;20065;-57
2023/10/09 08:33:57;;;;;;;4.85;3.33;;;22.70;58.90;;;;;;5047156;28;20049;-62
2023/10/09 08:36:28;;;;;;;5.30;3.55;;;22.80;59.00;;;;;;5028373;28;20048;-56
2023/10/09 08:38:58;;;;;;;4.55;3.15;;;22.70;59.00;;;;;;5047306;28;20051;-61
2023/10/09 08:41:29;;;;;;;6.50;3.10;;;22.80;59.00;;;;;;5044064;28;20037;-61
2023/10/09 08:43:57;;;;;;;4.80;3.00;;;22.80;59.00;;;;;;5045725;28;20397;-60
2023/10/09 08:46:27;;;;;;;4.28;2.92;;;22.70;59.00;;;;;;5047083;28;20439;-59
2023/10/09 08:48:58;;;;;;;4.47;3.30;;;22.80;59.10;;;;;;5047379;28;20037;-60
2023/10/09 08:51:29;;;;;;;4.53;3.00;;;22.80;59.10;;;;;;5046791;28;20104;-60
2023/10/09 08:53:55;;;;;;;4.93;3.20;;;22.80;59.10;;;;;;5047217;28;20029;-60
2023/10/09 08:56:22;;;;;;;6.03;3.53;;;22.80;59.10;;;;;;5046623;28;20071;-58
2023/10/09 08:58:51;;;;;;;5.13;3.10;;;22.80;59.10;;;;;;5046032;28;20061;-57
2023/10/09 09:01:21;;;;;;;5.65;4.03;;;22.80;59.20;;;;;;5047262;28;20361;-59
2023/10/09 09:03:50;;;;;;;5.13;3.60;;;22.80;59.20;;;;;;5045353;28;20025;-59
2023/10/09 09:06:19;;;;;;;4.38;3.05;;;22.80;59.20;;;;;;5011008;28;20038;-56
2023/10/09 09:08:46;;;;;;;4.90;3.60;;;22.80;59.20;;;;;;5044594;28;20376;-59
2023/10/09 09:11:22;;;;;;;4.65;3.47;;;22.80;59.30;;;;;;5046919;28;20104;-60
2023/10/09 09:13:58;;;;;;;4.72;3.17;;;22.80;59.30;;;;;;5049945;28;20060;-61
2023/10/09 09:16:31;;;;;;;5.97;3.60;;;22.90;59.40;;;;;;5052598;28;20048;-57
2023/10/09 09:19:03;;;;;;;5.50;3.22;;;22.80;59.30;;;;;;5052121;28;20375;-57
2023/10/09 09:21:36;;;;;;;5.38;3.28;;;22.80;59.40;;;;;;5052511;28;20033;-59
2023/10/09 09:24:06;;;;;;;5.90;3.33;;;22.80;59.40;;;;;;5052314;28;20037;-57
2023/10/09 09:26:46;;;;;;;4.80;3.30;;;22.90;59.40;;;;;;5050466;28;20433;-57
2023/10/09 09:29:19;;;;;;;4.05;3.10;;;22.90;59.50;;;;;;5051355;28;20056;-61
2023/10/09 09:32:06;;;;;;;4.82;3.47;;;22.90;59.50;;;;;;5051943;28;20458;-58
2023/10/09 09:34:46;;;;;;;5.45;3.63;;;22.90;59.50;;;;;;5051635;28;20128;-59
2023/10/09 09:37:28;;;;;;;4.65;3.03;;;22.90;59.50;;;;;;5034179;28;20055;-58
2023/10/09 09:40:14;;;;;;;4.25;3.08;;;22.90;59.50;;;;;;5034054;28;20037;-60
2023/10/09 09:42:48;;;;;;;6.03;3.72;;;22.90;59.60;;;;;;5050871;28;20037;-59
2023/10/09 09:45:16;;;;;;;4.60;3.10;;;22.90;59.60;;;;;;5033785;28;20424;-61
2023/10/09 09:47:51;;;;;;;5.45;3.20;;;22.90;59.60;;;;;;5051771;28;20029;-57
2023/10/09 09:50:29;;;;;;;5.05;3.28;;;23.00;59.70;;;;;;5051793;28;20124;-57
2023/10/09 09:52:56;;;;;;;4.95;3.55;;;22.90;59.70;;;;;;5034192;28;20337;-61
2023/10/09 09:55:30;;;;;;;4.90;3.13;;;23.00;59.80;;;;;;5051702;28;20389;-59
2023/10/09 09:58:02;;;;;;;5.43;3.55;;;23.00;59.80;;;;;;5032672;28;20087;-59
2023/10/09 10:03:12;;;;;;;4.75;3.25;;;23.00;59.90;;;;;;5051472;28;20029;-56
2023/10/09 10:05:42;;;;;;;5.15;2.90;;;23.00;59.90;;;;;;5033931;28;20029;-59
2023/10/09 10:08:13;;;;;;;4.75;3.20;;;23.00;59.90;;;;;;5051798;28;20025;-56
2023/10/09 10:10:49;;;;;;;5.75;3.30;;;23.00;60.00;;;;;;5050495;28;20098;-59
2023/10/09 10:13:23;;;;;;;5.22;2.90;;;23.00;60.00;;;;;;5051416;28;20090;-59
2023/10/09 10:16:20;;;;;;;5.20;2.90;;;23.00;60.00;;;;;;5051622;28;20036;-59
2023/10/09 10:21:52;;;;;;;4.90;3.10;;;23.00;60.00;;;;;;5031990;28;20075;-57
2023/10/09 10:24:30;;;;;;;4.82;2.83;;;23.00;60.00;;;;;;5051038;28;20051;-57
2023/10/09 10:27:26;;;;;;;6.05;3.45;;;23.00;60.00;;;;;;5050213;28;20053;-60
2023/10/09 10:30:11;;;;;;;6.13;3.40;;;23.00;60.00;;;;;;5051648;28;20033;-54
2023/10/09 10:32:52;;;;;;;6.22;3.40;;;23.10;60.10;;;;;;5029526;28;20405;-56
2023/10/09 10:38:25;;;;;;;4.55;2.80;;;23.10;60.10;;;;;;5045826;28;20044;-59
2023/10/09 10:40:57;;;;;;;6.00;2.97;;;23.10;60.10;;;;;;5046214;28;20406;-61
2023/10/09 10:46:21;;;;;;;6.18;2.80;;;23.10;60.00;;;;;;5046849;28;20479;-57
2023/10/09 10:48:59;;;;;;;4.63;2.83;;;23.10;60.00;;;;;;5044683;28;20112;-60
2023/10/09 10:51:37;;;;;;;5.70;3.22;;;23.10;60.00;;;;;;5030296;28;20065;-58
2023/10/09 10:56:49;;;;;;;5.60;3.05;;;23.10;60.00;;;;;;5051094;28;20120;-59
2023/10/09 10:59:22;;;;;;;5.22;2.88;;;23.10;60.00;;;;;;5033819;28;20044;-56
2023/10/09 11:15:47;;;;;;;4.55;3.30;;;23.20;59.80;;;;;;5023349;28;20033;-62
2023/10/09 11:18:20;;;;;;;5.35;2.80;;;23.20;59.80;;;;;;5021610;28;20127;-58
2023/10/09 11:26:27;;;;;;;4.40;2.97;;;23.20;59.90;;;;;;5050113;28;20634;-59
2023/10/09 11:29:14;;;;;;;3.83;2.95;;;23.30;59.90;;;;;;5046704;28;20143;-59
2023/10/09 11:31:45;;;;;;;4.53;2.70;;;23.40;59.80;;;;;;5048403;28;20058;-59
2023/10/09 11:34:29;;;;;;;4.45;2.90;;;23.50;59.60;;;;;;5046660;28;20052;-59
2023/10/09 11:36:57;;;;;;;4.57;2.45;;;23.60;59.40;;;;;;5049174;28;20029;-57
2023/10/09 11:39:32;;;;;;;3.78;2.60;;;23.60;59.10;;;;;;5043990;28;20064;-59
2023/10/09 11:42:14;;;;;;;4.70;2.80;;;23.70;58.90;;;;;;5054798;28;20115;-59
2023/10/09 11:44:45;;;;;;;4.88;2.80;;;23.80;58.70;;;;;;5048147;28;20116;-59
2023/10/09 11:47:33;;;;;;;4.00;2.78;;;23.80;58.50;;;;;;5047247;28;20127;-59
2023/10/09 11:52:35;;;;;;;5.90;2.72;;;23.80;58.40;;;;;;5047443;28;20464;-62
2023/10/09 11:55:14;;;;;;;4.78;2.97;;;23.90;58.40;;;;;;5048406;28;20320;-59
2023/10/09 11:57:41;;;;;;;3.97;2.70;;;23.90;58.40;;;;;;5028786;28;20037;-59
2023/10/09 12:02:52;;;;;;;4.60;2.75;;;23.80;58.40;;;;;;5045637;28;20031;-59
2023/10/09 12:05:18;;;;;;;4.07;2.60;;;23.80;58.40;;;;;;5048186;28;20028;-59
2023/10/09 12:07:55;;;;;;;4.32;2.60;;;23.80;58.40;;;;;;5047709;28;20305;-59
2023/10/09 12:10:25;;;;;;;4.50;2.80;;;23.80;58.40;;;;;;5046398;28;20033;-59
2023/10/09 12:12:58;;;;;;;4.32;2.50;;;23.80;58.40;;;;;;5048854;28;20036;-58
2023/10/09 12:15:24;;;;;;;5.97;2.83;;;23.80;58.50;;;;;;5048494;28;20120;-59
2023/10/09 12:17:53;;;;;;;4.60;2.78;;;23.80;58.50;;;;;;5044059;28;20029;-60
2023/10/09 12:20:40;;;;;;;4.53;2.65;;;23.80;58.50;;;;;;5046835;28;20087;-59
2023/10/09 12:23:05;;;;;;;5.15;2.85;;;23.80;58.50;;;;;;5046624;28;20061;-59
2023/10/09 12:25:33;;;;;;;4.00;2.63;;;23.80;58.50;;;;;;5045938;28;20024;-60
2023/10/09 12:28:01;;;;;;;4.63;3.03;;;23.80;58.50;;;;;;5026768;28;20025;-60
2023/10/09 12:30:30;;;;;;;4.78;2.70;;;23.70;58.50;;;;;;5044614;28;20035;-60
2023/10/09 12:32:57;;;;;;;4.70;2.60;;;23.70;58.50;;;;;;5044429;28;20043;-59
2023/10/09 12:35:25;;;;;;;4.30;2.90;;;23.70;58.50;;;;;;5036673;28;20056;-59
2023/10/09 12:37:54;;;;;;;4.10;3.22;;;23.70;58.50;;;;;;5042060;28;20090;-60
2023/10/09 12:40:32;;;;;;;4.00;2.72;;;23.70;58.60;;;;;;5043047;28;20491;-60
2023/10/09 12:43:01;;;;;;;3.70;2.35;;;23.70;58.50;;;;;;5046434;28;20073;-60
2023/10/09 12:45:27;;;;;;;4.15;2.58;;;23.70;58.50;;;;;;5048167;28;20016;-61
2023/10/09 12:47:58;;;;;;;4.38;2.88;;;23.70;58.50;;;;;;5024146;28;20397;-59
2023/10/09 12:50:27;;;;;;;3.50;2.42;;;23.70;58.50;;;;;;5047060;28;20444;-61
2023/10/09 12:53:01;;;;;;;4.85;2.83;;;23.70;58.50;;;;;;5047859;28;20175;-57
2023/10/09 12:55:33;;;;;;;4.80;2.63;;;23.70;58.50;;;;;;5044335;28;20033;-61
2023/10/09 12:58:06;;;;;;;5.55;2.78;;;23.70;58.40;;;;;;5041057;28;20036;-61
2023/10/09 13:00:39;;;;;;;4.82;2.60;;;23.70;58.40;;;;;;5036537;28;20033;-60
2023/10/09 13:03:18;;;;;;;6.10;3.30;;;23.70;58.40;;;;;;5040016;28;20076;-60
2023/10/09 13:05:53;;;;;;;4.18;2.80;;;23.70;58.40;;;;;;5038615;28;20460;-61
2023/10/09 13:08:23;;;;;;;4.18;2.65;;;23.70;58.40;;;;;;5039441;28;20179;-59
2023/10/09 13:11:00;;;;;;;4.45;2.90;;;23.70;58.30;;;;;;5041557;28;20097;-60
2023/10/09 13:13:39;;;;;;;4.05;2.83;;;23.60;58.20;;;;;;5024282;28;20549;-61
2023/10/09 13:16:08;;;;;;;6.28;2.88;;;23.60;58.20;;;;;;5046513;28;20546;-60
2023/10/09 13:18:35;;;;;;;3.28;2.35;;;23.60;58.20;;;;;;5044311;28;20123;-59
2023/10/09 13:21:04;;;;;;;4.70;2.88;;;23.60;58.20;;;;;;5026843;28;20432;-60
2023/10/09 13:23:39;;;;;;;4.85;3.10;;;23.60;58.20;;;;;;5027227;28;20375;-62
2023/10/09 13:26:17;;;;;;;5.35;3.13;;;23.60;58.20;;;;;;5020634;28;20037;-60
2023/10/09 13:28:45;;;;;;;3.97;2.50;;;23.60;58.30;;;;;;5043122;28;20036;-58
2023/10/09 13:31:16;;;;;;;6.15;3.25;;;23.60;58.30;;;;;;5047023;28;20021;-61
2023/10/09 13:33:44;;;;;;;5.97;3.00;;;23.60;58.30;;;;;;5047331;28;20120;-60
2023/10/09 13:36:31;;;;;;;4.22;2.92;;;23.60;58.30;;;;;;5020464;28;20417;-60
2023/10/09 13:39:06;;;;;;;3.97;2.65;;;23.60;58.30;;;;;;5045861;28;20052;-61
2023/10/09 13:41:32;;;;;;;4.38;3.03;;;23.60;58.30;;;;;;5045627;28;20042;-59
2023/10/09 13:43:58;;;;;;;4.45;2.67;;;23.60;58.30;;;;;;5037679;28;20049;-60
2023/10/09 13:46:24;;;;;;;4.82;2.97;;;23.60;58.30;;;;;;5044021;28;20162;-59
2023/10/09 13:48:52;;;;;;;4.63;2.88;;;23.60;58.40;;;;;;5046473;28;20231;-61
2023/10/09 13:51:18;;;;;;;6.45;3.22;;;23.60;58.40;;;;;;5044138;28;20037;-61
2023/10/09 13:53:46;;;;;;;3.88;2.80;;;23.60;58.40;;;;;;5043758;28;20413;-60
2023/10/09 13:56:18;;;;;;;5.75;3.50;;;23.60;58.40;;;;;;5037970;28;20035;-57
2023/10/09 13:58:51;;;;;;;3.67;2.33;;;23.60;58.50;;;;;;5036227;28;20143;-61
2023/10/09 14:01:26;;;;;;;4.22;2.70;;;23.60;58.50;;;;;;5038334;28;20029;-60
2023/10/09 14:03:57;;;;;;;3.70;2.55;;;23.60;58.60;;;;;;5041246;28;20075;-58
2023/10/09 14:06:33;;;;;;;3.90;2.70;;;23.60;58.70;;;;;;5042981;28;20127;-59
2023/10/09 14:09:09;;;;;;;3.95;2.97;;;23.60;58.80;;;;;;5039188;28;20460;-59
2023/10/09 14:11:37;;;;;;;3.20;2.47;;;23.60;58.80;;;;;;5040367;28;20037;-59
2023/10/09 14:14:09;;;;;;;4.53;2.70;;;23.60;58.90;;;;;;5042887;28;20094;-60
2023/10/09 14:16:37;;;;;;;3.92;2.22;;;23.60;58.90;;;;;;5004424;28;20040;-58
2023/10/09 14:19:07;;;;;;;4.30;2.95;;;23.60;59.00;;;;;;5040032;28;20179;-60
2023/10/09 14:21:37;;;;;;;3.90;3.00;;;23.70;59.10;;;;;;5021151;28;20033;-61
2023/10/09 14:24:15;;;;;;;3.40;2.17;;;23.60;59.10;;;;;;5037312;28;20459;-58
2023/10/09 14:26:46;;;;;;;3.58;2.35;;;23.70;59.20;;;;;;5040926;28;20120;-60
2023/10/09 14:29:16;;;;;;;3.42;2.40;;;23.70;59.20;;;;;;5041124;28;20056;-61
2023/10/09 14:31:59;;;;;;;4.30;2.60;;;23.70;59.20;;;;;;5038801;28;20138;-60
2023/10/09 14:34:32;;;;;;;4.18;2.35;;;23.60;59.20;;;;;;5043317;28;20049;-59
2023/10/09 14:37:01;;;;;;;3.25;2.30;;;23.70;59.30;;;;;;5041356;28;20061;-60
2023/10/09 14:39:29;;;;;;;5.07;2.63;;;23.70;59.30;;;;;;5017864;28;20033;-61
2023/10/09 14:41:57;;;;;;;4.72;2.53;;;23.70;59.30;;;;;;5041079;28;20027;-58
2023/10/09 14:44:30;;;;;;;3.85;2.75;;;23.70;59.40;;;;;;5040174;28;20106;-59
2023/10/09 14:46:56;;;;;;;3.17;2.20;;;23.70;59.40;;;;;;5038821;28;20346;-58
2023/10/09 14:49:23;;;;;;;3.72;2.45;;;23.70;59.40;;;;;;5039282;28;20025;-59
2023/10/09 14:51:50;;;;;;;2.80;2.10;;;23.70;59.40;;;;;;5039332;28;20099;-61
2023/10/09 14:54:17;;;;;;;3.85;2.22;;;23.70;59.50;;;;;;5036521;28;20108;-59
2023/10/09 14:56:45;;;;;;;3.83;2.53;;;23.70;59.50;;;;;;5038684;28;20530;-59
2023/10/09 14:59:11;;;;;;;3.80;2.75;;;23.70;59.50;;;;;;5040139;28;20051;-60
2023/10/09 15:01:38;;;;;;;4.25;2.85;;;23.70;59.50;;;;;;5039451;28;20332;-60
2023/10/09 15:04:04;;;;;;;3.85;2.30;;;23.70;59.50;;;;;;5032824;28;21646;-59
2023/10/09 15:06:30;;;;;;;3.25;2.20;;;23.70;59.50;;;;;;5034811;28;20128;-60
2023/10/09 15:08:58;;;;;;;3.53;2.30;;;23.70;59.60;;;;;;5037641;28;20071;-60
2023/10/09 15:11:28;;;;;;;3.85;2.33;;;23.70;59.70;;;;;;5038076;28;20072;-60
2023/10/09 15:13:59;;;;;;;3.50;2.25;;;23.70;59.70;;;;;;5041699;28;20033;-61
2023/10/09 15:16:28;;;;;;;3.75;2.25;;;23.70;59.70;;;;;;5041198;28;20483;-59
2023/10/09 15:18:56;;;;;;;4.28;2.55;;;23.70;59.70;;;;;;5040594;28;20436;-59
2023/10/09 15:21:32;;;;;;;3.72;2.85;;;23.70;59.70;;;;;;5039947;28;20040;-60
2023/10/09 15:23:59;;;;;;;4.60;2.45;;;23.70;59.70;;;;;;5039848;28;20456;-59
2023/10/09 15:26:25;;;;;;;3.55;2.20;;;23.70;59.80;;;;;;5039216;28;20056;-60
2023/10/09 15:28:51;;;;;;;3.30;2.33;;;23.60;59.70;;;;;;5024068;28;20033;-60
2023/10/09 15:31:20;;;;;;;3.85;2.70;;;23.70;59.80;;;;;;5042141;28;20035;-60
2023/10/09 15:33:47;;;;;;;3.83;2.60;;;23.70;59.80;;;;;;5041662;28;20125;-59
2023/10/09 15:36:19;;;;;;;3.53;2.33;;;23.70;59.80;;;;;;5044081;28;20104;-59
2023/10/09 15:38:46;;;;;;;4.70;2.70;;;23.70;59.80;;;;;;5039882;28;20040;-58
2023/10/09 15:41:13;;;;;;;3.28;2.30;;;23.70;59.90;;;;;;5020586;28;20428;-59
2023/10/09 15:43:39;;;;;;;4.55;2.58;;;23.70;59.90;;;;;;5042306;28;20061;-60
2023/10/09 15:46:14;;;;;;;4.25;2.70;;;23.70;59.90;;;;;;5039631;28;20045;-60
2023/10/09 15:48:41;;;;;;;3.95;2.47;;;23.70;59.90;;;;;;5039572;28;20055;-61
2023/10/09 15:51:14;;;;;;;6.47;3.10;;;23.70;59.90;;;;;;5043656;28;20025;-60
2023/10/09 15:53:45;;;;;;;6.03;2.97;;;23.70;59.90;;;;;;5040666;28;20025;-60
2023/10/09 15:56:12;;;;;;;4.50;2.55;;;23.70;59.90;;;;;;5043272;28;20017;-59
2023/10/09 15:58:42;;;;;;;5.43;2.90;;;23.70;59.90;;;;;;5039730;28;20047;-60
2023/10/09 16:01:12;;;;;;;5.60;2.90;;;23.70;59.90;;;;;;5038700;28;20034;-60